Time;durP1;ratioP1;P1;durP2;ratioP2;P2;SDS_P1;SDS_P2;PMS_P1;PMS_P2;Temp;Humidity;BMP_temperature;BMP_pressure;BME280_temperature;BME280_humidity;BME280_pressure;Samples;Min_cycle;Max_cycle;Signal;HPM_P1;HPM_P2
2023/08/23 00:00:37;;;;;;;29.43;28.33;;;26.10;91.00;;;;;;4972483;28;20499;-47
2023/08/23 00:03:05;;;;;;;30.20;29.07;;;26.00;91.00;;;;;;4971092;28;20467;-47
2023/08/23 00:05:31;;;;;;;28.93;27.57;;;26.00;91.00;;;;;;4970906;28;20484;-47
2023/08/23 00:07:58;;;;;;;28.77;27.67;;;26.00;91.00;;;;;;4972503;28;20487;-48
2023/08/23 00:10:25;;;;;;;28.53;27.40;;;26.00;91.10;;;;;;4971937;28;20529;-47
2023/08/23 00:12:55;;;;;;;30.70;29.50;;;26.00;91.20;;;;;;4972204;28;21030;-47
2023/08/23 00:15:22;;;;;;;29.63;28.43;;;26.00;91.10;;;;;;4957264;28;20456;-47
2023/08/23 00:17:50;;;;;;;30.93;29.73;;;26.00;91.10;;;;;;4953257;28;20476;-50
2023/08/23 00:20:17;;;;;;;28.40;27.30;;;26.00;91.20;;;;;;4952947;28;20892;-46
2023/08/23 00:22:44;;;;;;;29.03;27.93;;;26.00;91.30;;;;;;4957628;28;20440;-46
2023/08/23 00:25:11;;;;;;;29.17;27.90;;;26.00;91.40;;;;;;4952902;28;20452;-48
2023/08/23 00:27:38;;;;;;;28.90;27.80;;;25.90;91.50;;;;;;4953005;28;20476;-46
2023/08/23 00:30:06;;;;;;;28.60;27.60;;;25.90;91.50;;;;;;4952511;28;20882;-46
2023/08/23 00:32:32;;;;;;;30.30;29.00;;;25.90;91.60;;;;;;4951579;28;20576;-47
2023/08/23 00:35:01;;;;;;;29.50;28.30;;;25.90;91.60;;;;;;4956840;28;20448;-46
2023/08/23 00:37:28;;;;;;;28.53;27.30;;;25.90;91.60;;;;;;4959877;28;20455;-47
2023/08/23 00:39:54;;;;;;;29.83;28.37;;;25.90;91.70;;;;;;4958856;28;20484;-50
2023/08/23 00:42:21;;;;;;;28.93;27.83;;;25.90;91.80;;;;;;4958795;28;20477;-48
2023/08/23 00:44:48;;;;;;;30.73;29.63;;;25.90;91.90;;;;;;4965236;28;20448;-47
2023/08/23 00:47:15;;;;;;;29.20;28.00;;;25.90;91.90;;;;;;4978352;28;20459;-48
2023/08/23 00:49:42;;;;;;;28.50;27.40;;;25.90;92.00;;;;;;4977898;28;20482;-46
2023/08/23 00:52:10;;;;;;;30.40;29.07;;;25.90;92.00;;;;;;4968500;28;20534;-49
2023/08/23 00:54:37;;;;;;;32.17;30.97;;;25.90;92.10;;;;;;4958834;29;20453;-47
2023/08/23 00:57:05;;;;;;;28.23;27.13;;;25.80;92.10;;;;;;4959071;28;20481;-47
2023/08/23 00:59:35;;;;;;;29.87;28.67;;;25.80;92.30;;;;;;4959267;28;20449;-47
2023/08/23 01:02:02;;;;;;;29.00;27.80;;;25.80;92.30;;;;;;4958769;29;20469;-47
2023/08/23 01:04:29;;;;;;;29.50;28.40;;;25.80;92.50;;;;;;4958517;28;20476;-47
2023/08/23 01:07:04;;;;;;;28.87;27.80;;;25.80;92.50;;;;;;4958625;28;20482;-47
2023/08/23 01:09:42;;;;;;;29.33;28.23;;;25.80;92.70;;;;;;4958691;29;20440;-50
2023/08/23 01:12:16;;;;;;;29.10;27.93;;;25.80;92.80;;;;;;4958884;28;20519;-46
2023/08/23 01:14:51;;;;;;;28.93;27.83;;;25.80;92.90;;;;;;4959922;29;20440;-47
2023/08/23 01:17:20;;;;;;;28.80;27.77;;;25.80;93.30;;;;;;4962269;28;20466;-48
2023/08/23 01:19:48;;;;;;;33.83;32.60;;;25.80;93.10;;;;;;4961144;28;20453;-47
2023/08/23 01:22:19;;;;;;;29.57;28.47;;;25.80;93.10;;;;;;4961023;29;20815;-48
2023/08/23 01:24:48;;;;;;;29.13;27.93;;;25.80;93.20;;;;;;4961532;29;20455;-52
2023/08/23 01:27:16;;;;;;;30.33;29.13;;;25.80;93.30;;;;;;4961997;28;20944;-47
2023/08/23 01:29:44;;;;;;;29.40;28.20;;;25.80;93.40;;;;;;4961764;29;20543;-49
2023/08/23 01:32:23;;;;;;;30.53;29.33;;;25.70;93.30;;;;;;4962370;29;20484;-47
2023/08/23 01:34:54;;;;;;;29.97;28.80;;;25.70;93.20;;;;;;4962333;29;20502;-46
2023/08/23 01:37:22;;;;;;;29.73;28.63;;;25.70;93.30;;;;;;4962722;29;20483;-51
2023/08/23 01:39:52;;;;;;;29.63;28.33;;;25.70;93.30;;;;;;4964603;28;20455;-47
2023/08/23 01:42:21;;;;;;;30.17;28.97;;;25.70;93.30;;;;;;4981389;28;20471;-50
2023/08/23 01:44:50;;;;;;;30.03;28.83;;;25.70;93.30;;;;;;4981187;28;20978;-48
2023/08/23 01:47:17;;;;;;;29.00;27.80;;;25.70;93.40;;;;;;4981756;28;20505;-50
2023/08/23 01:49:44;;;;;;;30.90;29.60;;;25.70;93.40;;;;;;4980592;28;20482;-51
2023/08/23 01:52:11;;;;;;;29.20;28.10;;;25.70;93.40;;;;;;4964040;28;20484;-50
2023/08/23 01:54:38;;;;;;;29.13;28.03;;;25.70;93.40;;;;;;4962216;28;20483;-48
2023/08/23 01:57:06;;;;;;;28.67;27.37;;;25.70;93.50;;;;;;4962312;28;20476;-49
2023/08/23 01:59:33;;;;;;;29.30;28.13;;;25.70;93.60;;;;;;4962443;28;20822;-51
2023/08/23 02:02:00;;;;;;;29.33;28.03;;;25.70;93.60;;;;;;4962540;28;20495;-47
2023/08/23 02:04:27;;;;;;;29.10;27.90;;;25.70;93.60;;;;;;4961731;28;20460;-49
2023/08/23 02:06:54;;;;;;;33.37;31.97;;;25.70;93.60;;;;;;4961795;28;20445;-47
2023/08/23 02:09:20;;;;;;;30.13;28.93;;;25.70;93.60;;;;;;4979382;28;20448;-48
2023/08/23 02:11:47;;;;;;;29.73;28.53;;;25.70;93.70;;;;;;4981490;28;20566;-49
2023/08/23 02:14:15;;;;;;;29.60;28.23;;;25.70;93.70;;;;;;4981563;28;20451;-48
2023/08/23 02:16:42;;;;;;;29.80;28.50;;;25.70;93.90;;;;;;4981218;28;20830;-50
2023/08/23 02:19:09;;;;;;;30.40;29.00;;;25.60;93.90;;;;;;4965491;28;20457;-49
2023/08/23 02:21:36;;;;;;;28.97;27.77;;;25.60;93.80;;;;;;4961320;29;20532;-49
2023/08/23 02:24:03;;;;;;;30.03;28.93;;;25.60;93.80;;;;;;4961527;28;20473;-49
2023/08/23 02:26:30;;;;;;;29.73;28.50;;;25.60;93.80;;;;;;4967908;28;20444;-47
2023/08/23 02:28:57;;;;;;;30.30;29.10;;;25.60;93.80;;;;;;4981886;28;20451;-49
2023/08/23 02:31:25;;;;;;;29.67;28.40;;;25.60;93.80;;;;;;4982003;28;20476;-49
2023/08/23 02:33:52;;;;;;;29.10;28.00;;;25.60;93.80;;;;;;4981737;28;20484;-48
2023/08/23 02:36:19;;;;;;;31.00;29.70;;;25.60;93.70;;;;;;4976452;28;20445;-47
2023/08/23 02:38:46;;;;;;;29.67;28.50;;;25.60;93.70;;;;;;4961569;28;20448;-51
2023/08/23 02:41:13;;;;;;;29.00;27.90;;;25.50;93.80;;;;;;4962778;28;20473;-50
2023/08/23 02:43:40;;;;;;;29.07;27.77;;;25.60;93.80;;;;;;4961516;28;20452;-48
2023/08/23 02:46:06;;;;;;;27.47;26.37;;;25.60;93.80;;;;;;4965586;28;20444;-47
2023/08/23 02:48:35;;;;;;;29.10;28.00;;;25.50;93.60;;;;;;4980587;28;20447;-49
2023/08/23 02:51:02;;;;;;;29.50;28.23;;;25.50;93.40;;;;;;4979671;28;20468;-53
2023/08/23 02:53:29;;;;;;;28.97;27.87;;;25.50;93.30;;;;;;4979412;28;20518;-51
2023/08/23 02:55:56;;;;;;;28.80;27.60;;;25.50;93.20;;;;;;4977742;28;20444;-52
2023/08/23 02:58:23;;;;;;;29.80;28.60;;;25.40;93.10;;;;;;4961071;28;20452;-47
2023/08/23 03:00:50;;;;;;;29.93;28.50;;;25.40;93.10;;;;;;4960473;29;20473;-53
2023/08/23 03:03:17;;;;;;;30.00;28.40;;;25.40;93.10;;;;;;4960428;29;20479;-48
2023/08/23 03:05:54;;;;;;;30.50;29.20;;;25.40;93.00;;;;;;4960340;28;20484;-49
2023/08/23 03:08:21;;;;;;;28.67;27.37;;;25.40;93.10;;;;;;4941772;28;20488;-48
2023/08/23 03:10:48;;;;;;;29.20;28.00;;;25.40;93.00;;;;;;4941670;29;20509;-51
2023/08/23 03:13:15;;;;;;;31.23;29.73;;;25.30;92.90;;;;;;4940730;29;20513;-49
2023/08/23 03:15:42;;;;;;;30.23;29.03;;;25.30;92.90;;;;;;4942049;29;20478;-52
2023/08/23 03:18:09;;;;;;;30.40;28.97;;;25.30;92.90;;;;;;4941285;29;20485;-50
2023/08/23 03:20:36;;;;;;;29.90;28.70;;;25.20;92.80;;;;;;4940792;28;20484;-53
2023/08/23 03:23:04;;;;;;;30.50;29.30;;;25.20;92.80;;;;;;4940702;28;20469;-50
2023/08/23 03:25:33;;;;;;;30.47;28.73;;;25.20;92.80;;;;;;4940764;29;20449;-50
2023/08/23 03:28:00;;;;;;;29.90;28.70;;;25.20;92.80;;;;;;4976736;28;20451;-49
2023/08/23 03:30:27;;;;;;;31.33;29.83;;;25.20;92.80;;;;;;4979235;28;20566;-49
2023/08/23 03:32:54;;;;;;;31.27;30.07;;;25.20;92.80;;;;;;4978559;28;20510;-50
2023/08/23 03:35:20;;;;;;;31.30;29.37;;;25.10;92.70;;;;;;4980110;28;20479;-51
2023/08/23 03:37:47;;;;;;;31.10;29.90;;;25.10;92.70;;;;;;4963345;28;20480;-51
2023/08/23 03:40:15;;;;;;;29.50;28.40;;;25.10;92.70;;;;;;4960065;28;20493;-49
2023/08/23 03:42:42;;;;;;;31.00;29.60;;;25.00;92.70;;;;;;4959586;29;20499;-49
2023/08/23 03:45:10;;;;;;;31.00;29.70;;;25.00;92.70;;;;;;4960257;28;20507;-48
2023/08/23 03:47:37;;;;;;;28.63;27.43;;;25.00;92.70;;;;;;4973740;28;20488;-48
2023/08/23 03:50:04;;;;;;;30.07;28.87;;;25.00;92.70;;;;;;4979391;28;20468;-49
2023/08/23 03:52:31;;;;;;;30.27;28.90;;;25.00;92.80;;;;;;4979295;28;20480;-49
2023/08/23 03:54:58;;;;;;;29.90;28.70;;;25.00;92.80;;;;;;4978402;28;20489;-51
2023/08/23 03:57:26;;;;;;;31.30;29.80;;;24.90;92.80;;;;;;4978744;28;20455;-52
2023/08/23 03:59:53;;;;;;;33.00;31.70;;;24.90;92.90;;;;;;4978862;28;20451;-49
2023/08/23 04:02:20;;;;;;;33.40;31.80;;;24.90;92.90;;;;;;4979193;28;20444;-48
2023/08/23 04:04:47;;;;;;;32.80;31.50;;;24.90;93.00;;;;;;4979129;28;20487;-53
2023/08/23 04:07:16;;;;;;;34.77;33.37;;;24.90;93.00;;;;;;4978246;28;20444;-50
2023/08/23 04:09:43;;;;;;;33.00;31.50;;;24.90;93.00;;;;;;4978866;28;20448;-49
2023/08/23 04:12:10;;;;;;;35.10;33.60;;;24.90;93.00;;;;;;4979076;28;20475;-50
2023/08/23 04:14:38;;;;;;;33.90;32.50;;;24.90;93.00;;;;;;4978953;28;20518;-53
2023/08/23 04:17:05;;;;;;;32.53;31.20;;;24.80;93.00;;;;;;4973537;28;20479;-54
2023/08/23 04:19:32;;;;;;;34.57;32.90;;;24.80;93.00;;;;;;4959452;28;20477;-49
2023/08/23 04:21:59;;;;;;;33.77;32.37;;;24.80;93.00;;;;;;4953848;28;20507;-48
2023/08/23 04:24:26;;;;;;;34.37;32.40;;;24.70;93.20;;;;;;4950879;28;20477;-50
2023/08/23 04:26:53;;;;;;;34.73;32.97;;;24.70;93.70;;;;;;4950654;28;20568;-48
2023/08/23 04:29:20;;;;;;;33.80;31.73;;;24.70;94.30;;;;;;4950887;28;20531;-49
2023/08/23 04:31:48;;;;;;;36.77;34.80;;;24.70;94.60;;;;;;4950935;28;20503;-51
2023/08/23 04:34:15;;;;;;;35.93;33.53;;;24.70;95.90;;;;;;4950523;28;20492;-49
2023/08/23 04:36:41;;;;;;;37.90;35.80;;;24.80;96.20;;;;;;4952880;28;20528;-52
2023/08/23 04:39:09;;;;;;;34.73;32.63;;;24.70;96.50;;;;;;4950828;28;20477;-48
2023/08/23 04:41:36;;;;;;;35.73;34.13;;;24.70;96.20;;;;;;4950777;29;20475;-49
2023/08/23 04:44:03;;;;;;;35.13;33.23;;;24.80;95.80;;;;;;4950515;28;20827;-54
2023/08/23 04:46:30;;;;;;;36.43;34.63;;;24.80;95.60;;;;;;4950588;29;20476;-49
2023/08/23 04:48:58;;;;;;;35.30;33.60;;;24.80;95.40;;;;;;4951357;28;20482;-49
2023/08/23 04:51:25;;;;;;;31.50;30.20;;;24.80;95.30;;;;;;4954007;28;20508;-50
2023/08/23 04:53:52;;;;;;;34.00;32.50;;;24.80;95.30;;;;;;4953810;28;20576;-51
2023/08/23 04:56:19;;;;;;;34.20;32.40;;;24.80;95.10;;;;;;4953992;28;20449;-49
2023/08/23 04:58:45;;;;;;;34.10;32.60;;;24.80;95.00;;;;;;4953983;28;20981;-48
2023/08/23 05:01:12;;;;;;;32.90;31.30;;;24.80;95.00;;;;;;4953959;28;20511;-48
2023/08/23 05:03:40;;;;;;;34.90;33.40;;;24.80;94.90;;;;;;4953648;28;20448;-50
2023/08/23 05:06:08;;;;;;;33.13;31.70;;;24.80;94.90;;;;;;4953679;29;20459;-48
2023/08/23 05:08:35;;;;;;;33.40;31.90;;;24.80;94.90;;;;;;4953784;28;20476;-49
2023/08/23 05:11:02;;;;;;;35.30;33.50;;;24.80;94.90;;;;;;4953599;29;20464;-49
2023/08/23 05:13:29;;;;;;;34.63;33.17;;;24.80;94.90;;;;;;4953475;28;20542;-50
2023/08/23 05:15:57;;;;;;;33.70;32.20;;;24.80;94.90;;;;;;4953744;28;20487;-49
2023/08/23 05:18:24;;;;;;;34.13;32.53;;;24.80;95.00;;;;;;4953556;28;20441;-48
2023/08/23 05:20:54;;;;;;;33.50;32.10;;;24.80;95.00;;;;;;4953421;28;20503;-49
2023/08/23 05:23:22;;;;;;;34.00;32.40;;;24.80;95.00;;;;;;4953318;29;20451;-51
2023/08/23 05:25:51;;;;;;;33.70;32.20;;;24.80;95.00;;;;;;4953568;28;20480;-48
2023/08/23 05:28:18;;;;;;;33.70;32.30;;;24.80;95.10;;;;;;4953462;28;20487;-49
2023/08/23 05:30:45;;;;;;;35.53;33.83;;;24.80;95.00;;;;;;4953285;29;20504;-49
2023/08/23 05:33:12;;;;;;;35.00;33.40;;;24.80;95.00;;;;;;4953200;28;20488;-49
2023/08/23 05:35:40;;;;;;;35.67;33.97;;;24.80;95.10;;;;;;4953457;28;20480;-50
2023/08/23 05:38:07;;;;;;;34.93;33.23;;;24.80;95.00;;;;;;4953396;28;20878;-51
2023/08/23 05:40:35;;;;;;;35.37;33.60;;;24.90;95.10;;;;;;4953236;28;20519;-51
2023/08/23 05:43:02;;;;;;;34.93;33.37;;;24.90;95.10;;;;;;4953214;28;20833;-49
2023/08/23 05:45:29;;;;;;;34.90;33.37;;;24.90;95.10;;;;;;4953542;28;20452;-48
2023/08/23 05:47:56;;;;;;;35.73;34.23;;;24.90;95.10;;;;;;4953230;28;20455;-48
2023/08/23 05:50:23;;;;;;;34.60;33.00;;;24.90;95.10;;;;;;4952975;29;20460;-49
2023/08/23 05:52:50;;;;;;;33.97;32.57;;;24.90;95.10;;;;;;4952926;29;20477;-49
2023/08/23 05:55:17;;;;;;;34.43;32.93;;;24.90;95.20;;;;;;4953079;28;20563;-50
2023/08/23 05:57:45;;;;;;;32.67;31.17;;;24.90;95.20;;;;;;4953133;28;20445;-49
2023/08/23 06:00:14;;;;;;;36.17;34.57;;;24.90;95.20;;;;;;4953008;28;20497;-48
2023/08/23 06:02:41;;;;;;;36.50;34.80;;;24.90;95.20;;;;;;4953227;29;20451;-49
2023/08/23 06:05:10;;;;;;;36.83;35.10;;;24.90;95.30;;;;;;4953083;28;20827;-49
2023/08/23 06:07:37;;;;;;;34.90;33.40;;;24.90;95.30;;;;;;4952896;28;20858;-49
2023/08/23 06:10:05;;;;;;;35.57;34.07;;;24.90;95.30;;;;;;4953360;28;20501;-50
2023/08/23 06:12:32;;;;;;;34.17;32.73;;;24.90;95.40;;;;;;4958357;29;20884;-49
2023/08/23 06:15:00;;;;;;;36.53;34.97;;;24.90;95.40;;;;;;4958397;28;20937;-51
2023/08/23 06:17:28;;;;;;;33.63;32.13;;;24.90;95.50;;;;;;4958435;28;20480;-49
2023/08/23 06:19:55;;;;;;;37.00;35.50;;;24.90;95.50;;;;;;4953349;28;20467;-48
2023/08/23 06:22:22;;;;;;;33.47;31.93;;;24.90;95.50;;;;;;4953359;28;20453;-48
2023/08/23 06:24:49;;;;;;;35.67;34.17;;;24.90;95.60;;;;;;4953003;28;20964;-48
2023/08/23 06:27:15;;;;;;;37.30;35.60;;;24.90;95.60;;;;;;4953298;28;20491;-48
2023/08/23 06:29:42;;;;;;;36.53;34.77;;;24.90;95.70;;;;;;4952430;28;20477;-49
2023/08/23 06:32:11;;;;;;;35.13;33.63;;;24.90;95.80;;;;;;4952624;29;20491;-49
2023/08/23 06:34:39;;;;;;;33.93;32.33;;;24.90;95.80;;;;;;4952369;28;20916;-49
2023/08/23 06:37:06;;;;;;;35.33;33.70;;;24.90;95.90;;;;;;4952412;28;20488;-48
2023/08/23 06:39:33;;;;;;;35.13;33.53;;;24.90;96.00;;;;;;4952413;28;20488;-49
2023/08/23 06:42:00;;;;;;;35.90;34.30;;;24.90;96.00;;;;;;4952759;28;21012;-49
2023/08/23 06:44:27;;;;;;;35.80;34.20;;;24.90;96.10;;;;;;4952281;28;20956;-49
2023/08/23 06:46:53;;;;;;;33.40;32.00;;;24.90;96.10;;;;;;4952399;28;20476;-47
2023/08/23 06:49:22;;;;;;;34.67;33.20;;;24.90;96.20;;;;;;4952314;28;20483;-48
2023/08/23 06:51:49;;;;;;;35.30;33.67;;;24.90;96.30;;;;;;4952063;29;20500;-49
2023/08/23 06:54:15;;;;;;;36.07;34.27;;;24.90;96.20;;;;;;4951988;29;20576;-49
2023/08/23 06:56:42;;;;;;;33.87;32.27;;;24.90;96.30;;;;;;4952333;28;20491;-49
2023/08/23 06:59:09;;;;;;;34.80;33.20;;;24.90;96.30;;;;;;4952216;28;20916;-49
2023/08/23 07:01:36;;;;;;;32.93;31.53;;;24.90;96.40;;;;;;4952784;28;20881;-48
2023/08/23 07:04:03;;;;;;;36.37;34.77;;;24.90;96.50;;;;;;4952432;28;20496;-51
2023/08/23 07:06:32;;;;;;;38.60;36.63;;;24.90;96.70;;;;;;4952064;28;20476;-49
2023/08/23 07:08:59;;;;;;;39.17;37.50;;;24.90;96.50;;;;;;4952283;28;20492;-49
2023/08/23 07:11:26;;;;;;;37.03;35.43;;;24.90;96.60;;;;;;4951411;28;20465;-50
2023/08/23 07:13:52;;;;;;;38.33;36.73;;;24.90;96.60;;;;;;4951685;28;20520;-49
2023/08/23 07:16:19;;;;;;;36.13;34.53;;;24.90;96.70;;;;;;4951971;29;20523;-49
2023/08/23 07:18:46;;;;;;;34.13;32.63;;;24.90;96.80;;;;;;4951975;28;20444;-49
2023/08/23 07:21:14;;;;;;;34.87;33.37;;;24.90;96.70;;;;;;4951841;28;20508;-50
2023/08/23 07:23:43;;;;;;;34.70;33.20;;;24.90;96.80;;;;;;4951580;29;20910;-49
2023/08/23 07:26:10;;;;;;;35.00;33.50;;;25.00;96.90;;;;;;4951705;29;20453;-49
2023/08/23 07:28:37;;;;;;;35.70;33.97;;;24.90;96.80;;;;;;4951710;28;20535;-49
2023/08/23 07:31:04;;;;;;;36.00;34.40;;;25.00;96.80;;;;;;4951583;28;20511;-49
2023/08/23 07:33:31;;;;;;;36.70;35.20;;;24.90;96.80;;;;;;4951649;28;20481;-49
2023/08/23 07:35:59;;;;;;;36.40;34.80;;;25.00;96.90;;;;;;4951618;28;20487;-49
2023/08/23 07:38:26;;;;;;;35.07;33.47;;;25.00;97.00;;;;;;4951502;29;20473;-49
2023/08/23 07:40:58;;;;;;;38.00;36.40;;;25.00;96.90;;;;;;4951503;29;20501;-49
2023/08/23 07:43:25;;;;;;;37.17;34.83;;;25.00;96.90;;;;;;4951296;29;20485;-49
2023/08/23 07:45:53;;;;;;;37.83;36.13;;;25.00;97.00;;;;;;4951539;28;20869;-49
2023/08/23 07:48:20;;;;;;;37.80;36.00;;;24.90;97.00;;;;;;4951426;29;20474;-49
2023/08/23 07:50:49;;;;;;;36.17;34.57;;;24.90;97.00;;;;;;4951277;29;20504;-49
2023/08/23 07:53:16;;;;;;;36.77;35.17;;;24.90;97.10;;;;;;4951150;28;20472;-49
2023/08/23 07:55:43;;;;;;;39.07;37.17;;;25.00;97.20;;;;;;4951298;29;20847;-49
2023/08/23 07:58:11;;;;;;;36.20;34.60;;;25.00;97.20;;;;;;4951255;29;20480;-50
2023/08/23 08:00:38;;;;;;;40.10;37.90;;;25.00;97.30;;;;;;4951129;29;20507;-49
2023/08/23 08:03:05;;;;;;;37.03;35.23;;;25.00;97.20;;;;;;4954838;28;20857;-49
2023/08/23 08:05:34;;;;;;;36.90;35.10;;;25.00;97.30;;;;;;4954812;29;20480;-49
2023/08/23 08:08:00;;;;;;;35.37;33.87;;;25.00;97.40;;;;;;4951175;29;21024;-49
2023/08/23 08:10:27;;;;;;;37.17;35.57;;;25.00;97.50;;;;;;4951093;28;20469;-48
2023/08/23 08:12:54;;;;;;;37.97;36.27;;;25.00;97.50;;;;;;4951090;28;20480;-48
2023/08/23 08:15:22;;;;;;;36.63;35.03;;;25.00;97.60;;;;;;4951015;28;20516;-49
2023/08/23 08:17:51;;;;;;;37.50;35.47;;;25.00;97.60;;;;;;4951133;28;20481;-50
2023/08/23 08:20:18;;;;;;;39.50;37.80;;;25.00;97.50;;;;;;4951009;29;20480;-49
2023/08/23 08:22:45;;;;;;;35.83;34.23;;;25.00;97.60;;;;;;4951046;29;20449;-48
2023/08/23 08:25:12;;;;;;;38.03;36.37;;;25.00;97.60;;;;;;4950618;28;20473;-50
2023/08/23 08:27:40;;;;;;;34.23;32.53;;;25.00;97.60;;;;;;4951640;29;20457;-48
2023/08/23 08:30:07;;;;;;;35.80;34.20;;;25.00;97.70;;;;;;4951372;28;20496;-48
2023/08/23 08:32:36;;;;;;;35.97;34.47;;;25.00;97.60;;;;;;4951434;28;20449;-48
2023/08/23 08:35:04;;;;;;;37.87;36.27;;;25.00;97.70;;;;;;4951125;28;21022;-48
2023/08/23 08:37:30;;;;;;;35.70;34.10;;;25.00;97.90;;;;;;4951155;29;20541;-50
2023/08/23 08:39:57;;;;;;;37.30;35.60;;;25.00;97.60;;;;;;4950792;28;20481;-49
2023/08/23 08:42:24;;;;;;;38.43;36.73;;;25.00;97.70;;;;;;4950667;28;20485;-49
2023/08/23 08:44:52;;;;;;;39.40;37.70;;;25.00;97.70;;;;;;4950431;29;20477;-49
2023/08/23 08:47:19;;;;;;;38.50;36.90;;;25.00;97.60;;;;;;4950608;29;20484;-49
2023/08/23 08:49:47;;;;;;;37.33;35.30;;;25.00;97.60;;;;;;4950703;28;20480;-49
2023/08/23 08:52:19;;;;;;;39.60;37.90;;;25.00;97.40;;;;;;4950691;28;20480;-49
2023/08/23 08:54:48;;;;;;;38.23;36.33;;;25.00;97.30;;;;;;4950251;28;20487;-49
2023/08/23 08:57:16;;;;;;;37.07;35.27;;;25.00;97.30;;;;;;4950460;29;20480;-50
2023/08/23 08:59:45;;;;;;;38.80;36.80;;;25.10;97.30;;;;;;4950421;29;20481;-49
2023/08/23 09:02:13;;;;;;;37.37;35.50;;;25.10;97.20;;;;;;4950464;28;20472;-49
2023/08/23 09:04:40;;;;;;;36.93;35.23;;;25.10;97.40;;;;;;4950151;28;20477;-49
2023/08/23 09:07:08;;;;;;;37.10;35.50;;;25.00;97.20;;;;;;4950476;28;20492;-49
2023/08/23 09:09:35;;;;;;;38.33;36.73;;;25.10;97.30;;;;;;4950512;28;20911;-50
2023/08/23 09:12:02;;;;;;;36.33;34.67;;;25.10;97.40;;;;;;4950419;28;20500;-49
2023/08/23 09:14:30;;;;;;;36.13;34.33;;;25.10;97.30;;;;;;4955463;28;20485;-48
2023/08/23 09:16:57;;;;;;;38.90;36.93;;;25.10;97.30;;;;;;4956297;28;20491;-50
2023/08/23 09:19:25;;;;;;;37.40;35.50;;;25.10;97.30;;;;;;4956520;28;20483;-50
2023/08/23 09:21:51;;;;;;;36.43;34.73;;;25.10;97.40;;;;;;4955464;29;20504;-50
2023/08/23 09:24:20;;;;;;;36.67;35.10;;;25.10;97.20;;;;;;4955160;28;20465;-49
2023/08/23 09:26:47;;;;;;;38.80;37.20;;;25.20;97.60;;;;;;4955609;29;20480;-51
2023/08/23 09:29:14;;;;;;;38.53;36.90;;;25.10;97.30;;;;;;4955932;28;20479;-49
2023/08/23 09:31:41;;;;;;;37.67;36.03;;;25.20;97.30;;;;;;4954914;29;20484;-50
2023/08/23 09:34:13;;;;;;;37.67;36.07;;;25.10;97.40;;;;;;4955110;28;20445;-50
2023/08/23 09:36:41;;;;;;;37.37;35.63;;;25.20;97.50;;;;;;4957852;28;20449;-50
2023/08/23 09:39:09;;;;;;;37.57;35.97;;;25.10;97.50;;;;;;4958441;28;20444;-49
2023/08/23 09:41:38;;;;;;;38.93;37.13;;;25.20;97.60;;;;;;4957345;29;20975;-51
2023/08/23 09:44:06;;;;;;;38.60;36.70;;;25.20;97.70;;;;;;4958088;29;20444;-50
2023/08/23 09:46:35;;;;;;;39.50;37.80;;;25.20;97.70;;;;;;4958955;29;20480;-49
2023/08/23 09:49:05;;;;;;;39.87;37.90;;;25.20;97.70;;;;;;4958515;29;20445;-48
2023/08/23 09:51:36;;;;;;;39.93;37.77;;;25.20;97.70;;;;;;4957681;29;20473;-50
2023/08/23 09:54:11;;;;;;;40.13;38.23;;;25.20;97.80;;;;;;4958648;29;20441;-49
2023/08/23 09:56:43;;;;;;;38.60;36.90;;;25.20;97.70;;;;;;4957935;28;20472;-49
2023/08/23 09:59:11;;;;;;;39.10;37.40;;;25.20;97.90;;;;;;4958338;28;20455;-51
2023/08/23 10:01:39;;;;;;;40.07;38.23;;;25.20;98.00;;;;;;4957911;29;20496;-49
2023/08/23 10:04:07;;;;;;;40.63;38.73;;;25.20;98.00;;;;;;4958111;29;20492;-51
2023/08/23 10:06:35;;;;;;;40.37;38.33;;;25.20;98.10;;;;;;4958798;28;20571;-50
2023/08/23 10:09:03;;;;;;;39.37;37.57;;;25.20;98.10;;;;;;4958506;29;20556;-51
2023/08/23 10:11:31;;;;;;;38.63;36.90;;;25.20;98.20;;;;;;4958661;28;20469;-49
2023/08/23 10:14:01;;;;;;;39.23;37.30;;;25.30;98.30;;;;;;4958263;29;20476;-50
2023/08/23 10:16:29;;;;;;;40.40;38.40;;;25.20;98.50;;;;;;4958328;29;20523;-49
2023/08/23 10:18:56;;;;;;;39.50;37.70;;;25.30;98.50;;;;;;4958616;29;20476;-48
2023/08/23 10:21:23;;;;;;;39.60;37.70;;;25.30;98.50;;;;;;4998337;22;20513;-49
2023/08/23 10:23:51;;;;;;;40.43;38.53;;;25.30;98.60;;;;;;5033435;28;20469;-50
2023/08/23 10:26:20;;;;;;;40.73;38.70;;;25.20;98.60;;;;;;5033687;28;20457;-49
2023/08/23 10:28:52;;;;;;;40.17;38.20;;;25.30;98.70;;;;;;5033543;28;20449;-48
2023/08/23 10:31:28;;;;;;;41.27;39.10;;;25.30;98.70;;;;;;5033598;28;20463;-48
2023/08/23 10:33:56;;;;;;;38.23;36.33;;;25.30;98.60;;;;;;5033230;28;20479;-51
2023/08/23 10:36:26;;;;;;;39.37;37.37;;;25.30;98.60;;;;;;5033472;28;21021;-50
2023/08/23 10:38:55;;;;;;;38.30;36.40;;;25.30;98.60;;;;;;5033367;28;20477;-50
2023/08/23 10:41:23;;;;;;;39.80;37.67;;;25.30;98.70;;;;;;5033320;28;20484;-48
2023/08/23 10:43:51;;;;;;;39.27;37.47;;;25.30;98.60;;;;;;5033131;28;20529;-49
2023/08/23 10:46:19;;;;;;;38.70;37.00;;;25.40;98.60;;;;;;5032564;28;20531;-49
2023/08/23 10:48:48;;;;;;;38.53;36.40;;;25.40;98.70;;;;;;5033064;28;20955;-49
2023/08/23 10:51:16;;;;;;;38.80;36.90;;;25.40;98.60;;;;;;5033194;28;20488;-50
2023/08/23 10:53:43;;;;;;;38.53;36.53;;;25.40;98.50;;;;;;5032999;28;20533;-49
2023/08/23 10:56:11;;;;;;;38.93;36.57;;;25.40;98.50;;;;;;5033026;28;20891;-49
2023/08/23 10:58:38;;;;;;;39.77;37.60;;;25.40;98.40;;;;;;5033052;28;20461;-49
2023/08/23 11:01:05;;;;;;;38.80;36.93;;;25.40;98.30;;;;;;5032716;28;20487;-51
2023/08/23 11:03:34;;;;;;;39.53;37.83;;;25.40;98.30;;;;;;5032840;28;20445;-49
2023/08/23 11:06:03;;;;;;;38.07;36.17;;;25.40;98.30;;;;;;5033153;28;20476;-50
2023/08/23 11:08:30;;;;;;;37.97;35.73;;;25.40;98.20;;;;;;5032762;28;20473;-49
2023/08/23 11:10:57;;;;;;;37.73;35.93;;;25.40;98.30;;;;;;5032645;28;20476;-49
2023/08/23 11:13:24;;;;;;;40.20;38.23;;;25.50;98.20;;;;;;5032574;28;20437;-51
2023/08/23 11:15:51;;;;;;;38.40;36.53;;;25.40;98.10;;;;;;5032444;28;20477;-49
2023/08/23 11:18:18;;;;;;;37.40;35.70;;;25.50;98.10;;;;;;5032672;28;20862;-50
2023/08/23 11:20:45;;;;;;;39.77;37.70;;;25.50;97.90;;;;;;5032573;28;20505;-49
2023/08/23 11:23:13;;;;;;;38.63;36.73;;;25.50;97.60;;;;;;5032220;28;20541;-49
2023/08/23 11:25:40;;;;;;;38.50;36.80;;;25.50;97.50;;;;;;5032523;28;20469;-50
2023/08/23 11:28:07;;;;;;;40.07;38.07;;;25.50;97.40;;;;;;5032478;28;20473;-50
2023/08/23 11:30:34;;;;;;;39.80;38.00;;;25.50;97.40;;;;;;5032317;28;20476;-49
2023/08/23 11:33:02;;;;;;;38.97;37.10;;;25.50;97.40;;;;;;5032167;28;20472;-49
2023/08/23 11:35:30;;;;;;;37.73;36.10;;;25.50;97.30;;;;;;5032306;28;20534;-49
2023/08/23 11:37:57;;;;;;;36.00;34.37;;;25.50;97.20;;;;;;5032214;28;20477;-49
2023/08/23 11:40:26;;;;;;;38.17;36.57;;;25.50;97.20;;;;;;5032193;28;20445;-49
2023/08/23 11:42:57;;;;;;;36.67;35.10;;;25.60;97.20;;;;;;5031963;28;20869;-49
2023/08/23 11:45:24;;;;;;;37.30;35.50;;;25.50;97.10;;;;;;5032248;28;20432;-49
2023/08/23 11:47:54;;;;;;;36.40;34.80;;;25.60;97.10;;;;;;5032040;28;20456;-49
2023/08/23 11:50:21;;;;;;;36.53;34.93;;;25.60;97.00;;;;;;5031999;28;20448;-50
2023/08/23 11:52:49;;;;;;;36.83;35.13;;;25.60;96.70;;;;;;5031832;28;20488;-49
2023/08/23 11:55:23;;;;;;;39.10;37.20;;;25.60;96.70;;;;;;5024099;28;20516;-49
2023/08/23 11:57:56;;;;;;;36.90;35.30;;;25.60;96.70;;;;;;5031924;28;20506;-49
2023/08/23 12:00:24;;;;;;;38.27;36.67;;;25.60;96.70;;;;;;5031784;28;20468;-49
2023/08/23 12:02:51;;;;;;;38.43;36.63;;;25.70;96.60;;;;;;5031510;28;20495;-49
2023/08/23 12:05:19;;;;;;;38.33;36.73;;;25.70;96.50;;;;;;5031837;28;20433;-49
2023/08/23 12:07:46;;;;;;;38.37;36.77;;;25.70;96.40;;;;;;5031808;28;20437;-49
2023/08/23 12:10:13;;;;;;;38.27;36.33;;;25.70;95.90;;;;;;5031625;28;20436;-49
2023/08/23 12:12:40;;;;;;;39.03;37.23;;;25.70;95.60;;;;;;5031672;28;20888;-50
2023/08/23 12:15:09;;;;;;;38.87;37.27;;;25.70;95.70;;;;;;5031480;28;20472;-49
2023/08/23 12:17:36;;;;;;;37.80;36.10;;;25.70;95.80;;;;;;5031734;28;20444;-49
2023/08/23 12:20:07;;;;;;;39.63;38.03;;;25.80;95.70;;;;;;5031453;28;20445;-49
2023/08/23 12:22:34;;;;;;;36.17;34.67;;;25.70;95.70;;;;;;5031610;28;20544;-49
2023/08/23 12:25:01;;;;;;;37.93;36.27;;;25.70;96.00;;;;;;5031373;28;20481;-51
2023/08/23 12:27:28;;;;;;;38.00;36.40;;;25.80;95.50;;;;;;5031556;28;20475;-49
2023/08/23 12:29:54;;;;;;;39.10;37.20;;;25.80;95.60;;;;;;5031166;28;20445;-49